Time;durP1;ratioP1;P1;durP2;ratioP2;P2;SDS_P1;SDS_P2;PMS_P1;PMS_P2;Temp;Humidity;BMP_temperature;BMP_pressure;BME280_temperature;BME280_humidity;BME280_pressure;Samples;Min_cycle;Max_cycle;Signal;HPM_P1;HPM_P2
2021/06/18 05:32:34;;;;;;;6.97;6.28;;;;;;;21.41;59.34;100825.56;1788338;79;25876;-68
2021/06/18 05:35:01;;;;;;;10.93;6.70;;;;;;;21.59;59.03;100830.79;1784742;79;27551;-67
2021/06/18 05:37:27;;;;;;;9.23;6.33;;;;;;;21.76;58.69;100830.02;1786194;79;25748;-67
2021/06/18 05:39:54;;;;;;;12.68;7.17;;;;;;;21.91;58.45;100831.02;1789315;78;25702;-67
2021/06/18 05:42:20;;;;;;;11.30;7.08;;;;;;;22.10;58.53;100822.62;1789104;78;25849;-68
2021/06/18 05:44:47;;;;;;;9.08;6.45;;;;;;;22.31;58.43;100824.06;1727531;81;25699;-68
2021/06/18 05:47:13;;;;;;;10.78;6.70;;;;;;;22.49;57.72;100818.17;1757889;79;27519;-70
2021/06/18 05:49:40;;;;;;;11.10;7.12;;;;;;;22.71;57.52;100819.18;1785154;78;25722;-70
2021/06/18 05:52:06;;;;;;;9.95;6.35;;;;;;;22.93;57.23;100814.66;1796562;77;25823;-69
2021/06/18 05:54:33;;;;;;;14.05;6.87;;;;;;;23.16;56.64;100818.41;1782080;78;26431;-69
2021/06/18 05:57:00;;;;;;;15.15;7.25;;;;;;;23.39;56.56;100818.17;1766407;79;25718;-69
2021/06/18 05:59:26;;;;;;;17.40;6.53;;;;;;;23.65;56.37;100817.95;1787374;78;27427;-69
2021/06/18 06:01:52;;;;;;;20.20;7.12;;;;;;;23.89;55.77;100814.92;1810244;78;25825;-70
2021/06/18 06:04:19;;;;;;;12.00;6.20;;;;;;;24.14;55.25;100815.81;1782539;78;25710;-68
2021/06/18 06:06:45;;;;;;;13.28;7.47;;;;;;;24.35;54.41;100818.48;1807048;78;25754;-69
2021/06/18 06:09:12;;;;;;;13.00;6.42;;;;;;;24.54;54.30;100818.72;1782572;78;25887;-70
2021/06/18 06:11:38;;;;;;;23.85;7.60;;;;;;;24.77;54.27;100819.75;1811000;78;27445;-68
2021/06/18 06:14:05;;;;;;;12.73;6.72;;;;;;;25.03;54.09;100812.25;1810012;78;25671;-69
2021/06/18 06:16:35;;;;;;;13.93;7.25;;;;;;;25.29;53.63;100809.71;1801792;79;25743;-68
2021/06/18 06:19:03;;;;;;;10.28;6.40;;;;;;;25.51;53.00;100816.00;1809236;78;25658;-69
2021/06/18 06:21:29;;;;;;;7.25;6.37;;;;;;;25.69;52.03;100814.55;1813865;78;25616;-68
2021/06/18 06:23:56;;;;;;;14.75;6.78;;;;;;;25.86;51.71;100814.30;1815262;78;27485;-68
2021/06/18 06:26:22;;;;;;;10.32;6.53;;;;;;;26.02;51.02;100821.60;1815103;78;25749;-69
2021/06/18 06:28:49;;;;;;;10.18;6.65;;;;;;;26.15;50.41;100825.30;1813796;78;25714;-69
2021/06/18 06:31:16;;;;;;;14.87;6.28;;;;;;;26.30;50.14;100824.04;1814207;78;25666;-71
2021/06/18 06:33:42;;;;;;;12.82;6.33;;;;;;;26.42;49.88;100819.41;1815181;78;25628;-70
2021/06/18 06:36:09;;;;;;;11.55;5.80;;;;;;;26.62;49.73;100823.87;1812078;78;28396;-69
2021/06/18 06:38:37;;;;;;;19.00;6.65;;;;;;;26.80;49.22;100824.34;1725490;80;26135;-71
2021/06/18 06:41:03;;;;;;;12.37;6.62;;;;;;;26.94;49.41;100817.30;1780103;78;25782;-71
2021/06/18 06:43:30;;;;;;;10.85;5.72;;;;;;;27.12;48.87;100819.91;1753624;80;25849;-71
2021/06/18 06:45:56;;;;;;;10.88;6.60;;;;;;;27.28;48.38;100815.83;1816756;78;25744;-70
2021/06/18 06:48:23;;;;;;;11.95;5.92;;;;;;;27.43;47.86;100812.32;1811013;78;28294;-71
2021/06/18 06:50:51;;;;;;;9.45;5.25;;;;;;;27.55;47.33;100818.16;1781672;78;25790;-71
2021/06/18 06:53:18;;;;;;;8.65;5.72;;;;;;;27.67;46.74;100816.03;1805292;78;25807;-71
2021/06/18 06:55:45;;;;;;;8.98;5.60;;;;;;;27.75;46.68;100818.34;1803627;78;25687;-70
2021/06/18 06:58:12;;;;;;;11.48;5.65;;;;;;;27.90;46.51;100818.94;1805886;78;25643;-73
2021/06/18 07:00:39;;;;;;;8.98;5.22;;;;;;;28.06;46.08;100818.97;1807713;78;27419;-73
2021/06/18 07:03:05;;;;;;;9.45;5.50;;;;;;;28.17;45.37;100818.23;1810067;78;25805;-72
2021/06/18 07:05:33;;;;;;;9.63;5.42;;;;;;;28.25;44.90;100818.33;1809418;78;25597;-73
2021/06/18 07:08:00;;;;;;;7.78;5.22;;;;;;;28.39;44.98;100816.56;1810263;78;25732;-72
2021/06/18 07:10:26;;;;;;;5.92;5.33;;;;;;;28.44;44.25;100810.53;1751496;80;25794;-84
2021/06/18 07:12:53;;;;;;;7.58;5.25;;;;;;;28.49;44.60;100810.05;1809995;78;27480;-74
2021/06/18 07:15:19;;;;;;;9.00;5.45;;;;;;;28.69;44.20;100816.53;1803964;78;25886;-80
2021/06/18 07:17:45;;;;;;;6.40;4.92;;;;;;;28.82;43.95;100811.76;1812066;78;26146;-81
2021/06/18 07:20:13;;;;;;;8.88;4.80;;;;;;;29.00;43.61;100805.91;1806357;78;25736;-81
2021/06/18 07:22:40;;;;;;;6.25;5.30;;;;;;;29.17;42.85;100810.40;1779989;79;25856;-82
2021/06/18 07:25:08;;;;;;;6.40;5.17;;;;;;;29.36;42.94;100808.08;1766057;78;27536;-81
2021/06/18 07:27:35;;;;;;;11.07;5.97;;;;;;;29.54;42.52;100809.13;1785890;79;25902;-80
2021/06/18 07:30:01;;;;;;;7.42;4.83;;;;;;;29.77;42.85;100811.09;1765479;79;25798;-79
2021/06/18 07:32:28;;;;;;;8.75;5.42;;;;;;;29.99;42.37;100812.22;1754240;80;25777;-81
2021/06/18 07:34:55;;;;;;;5.03;4.25;;;;;;;30.22;41.34;100802.16;1765083;78;26378;-81
2021/06/18 07:37:21;;;;;;;8.73;4.97;;;;;;;30.41;39.98;100801.98;1751956;80;27426;-74
2021/06/18 07:39:49;;;;;;;8.93;4.90;;;;;;;30.51;39.85;100793.17;1766958;79;26027;-76
2021/06/18 07:42:16;;;;;;;7.15;4.75;;;;;;;30.67;39.60;100798.77;1764652;79;25707;-76
2021/06/18 07:44:42;;;;;;;6.17;4.53;;;;;;;30.82;39.44;100795.02;1775352;79;26185;-78
2021/06/18 07:47:09;;;;;;;4.67;3.52;;;;;;;30.97;38.67;100798.86;1773956;79;25727;-80
2021/06/18 07:49:36;;;;;;;6.47;4.10;;;;;;;31.09;37.44;100802.33;1740956;80;27493;-81
2021/06/18 07:52:03;;;;;;;8.88;4.10;;;;;;;31.05;37.10;100784.89;1773615;77;25731;-77
2021/06/18 07:54:30;;;;;;;4.92;4.12;;;;;;;31.05;36.90;100784.89;1783219;78;25663;-77
2021/06/18 07:56:56;;;;;;;4.22;3.80;;;;;;;31.00;36.67;100793.19;1790409;79;25702;-90
2021/06/18 07:59:23;;;;;;;5.78;4.53;;;;;;;31.06;36.72;100785.86;1799582;78;25615;-83
2021/06/18 08:01:50;;;;;;;4.83;4.20;;;;;;;30.93;36.02;100795.36;1793126;78;27483;-84
2021/06/18 08:04:16;;;;;;;6.83;4.47;;;;;;;30.77;35.93;100789.97;1783630;77;25688;-79
2021/06/18 08:06:43;;;;;;;7.35;4.70;;;;;;;30.75;36.64;100788.23;1781305;77;25744;-82
2021/06/18 08:09:09;;;;;;;4.65;4.20;;;;;;;30.89;36.45;100792.66;1718494;81;25978;-84
2021/06/18 08:11:36;;;;;;;5.65;4.83;;;;;;;31.00;36.77;100782.63;1739091;81;25885;-82
2021/06/18 08:14:04;;;;;;;7.92;4.30;;;;;;;31.17;37.01;100784.78;1745799;81;27513;-84
2021/06/18 08:16:32;;;;;;;7.62;4.00;;;;;;;31.37;36.22;100782.63;1744493;81;25817;-83
2021/06/18 08:18:58;;;;;;;4.83;4.05;;;;;;;31.43;35.25;100788.46;1750736;79;25847;-87
2021/06/18 08:21:25;;;;;;;6.15;4.15;;;;;;;31.37;34.79;100786.05;1759769;77;25744;-88
2021/06/18 08:23:51;;;;;;;6.60;3.85;;;;;;;31.30;34.74;100772.28;1775054;78;25648;-82
2021/06/18 08:26:19;;;;;;;5.05;4.00;;;;;;;31.33;34.83;100781.16;1767670;80;27528;-82
2021/06/18 08:28:46;;;;;;;6.10;3.97;;;;;;;31.33;34.99;100774.97;1767208;80;26475;-80
2021/06/18 08:31:13;;;;;;;4.92;4.42;;;;;;;31.50;34.87;100776.30;1744059;80;26407;-82
2021/06/18 08:33:39;;;;;;;7.35;3.67;;;;;;;31.69;34.89;100779.59;1774325;78;25723;-84
2021/06/18 08:36:08;;;;;;;7.70;4.12;;;;;;;31.85;34.76;100777.31;1732266;81;25855;-86
2021/06/18 08:38:35;;;;;;;4.92;4.42;;;;;;;32.03;34.23;100779.59;1764520;79;33280;-86
2021/06/18 08:41:04;;;;;;;4.58;4.17;;;;;;;32.18;33.35;100779.94;1776408;79;25618;-79
2021/06/18 08:43:32;;;;;;;7.53;5.35;;;;;;;32.09;32.70;100776.41;1742291;81;25964;-82
2021/06/18 08:46:03;;;;;;;5.42;4.30;;;;;;;31.88;33.17;100761.67;1767169;80;25782;-82
2021/06/18 08:48:31;;;;;;;5.90;3.85;;;;;;;31.93;33.46;100763.91;1735014;81;25707;-78
2021/06/18 08:50:59;;;;;;;;;;;;;;;31.99;33.09;100768.52;1742163;80;27612;-76
2021/06/18 08:53:26;;;;;;;4.83;3.83;;;;;;;31.89;32.63;100765.42;1734789;81;25776;-79
2021/06/18 08:55:54;;;;;;;7.30;4.12;;;;;;;31.83;32.95;100764.39;1743568;81;25700;-75
2021/06/18 08:58:22;;;;;;;7.83;3.80;;;;;;;31.95;33.08;100767.05;1757576;81;25834;-77
2021/06/18 09:00:51;;;;;;;6.47;4.05;;;;;;;31.99;32.10;100760.72;1735110;80;25677;-80
2021/06/18 09:03:43;;;;;;;;;;;;;;;31.96;32.66;100754.61;1746834;79;27478;-78
2021/06/18 09:06:35;;;;;;;4.28;3.50;;;;;;;32.08;32.67;100760.08;1721173;79;25874;-69
2021/06/18 09:09:22;;;;;;;5.97;3.70;;;;;;;32.28;32.83;100755.03;1697743;81;26029;-67
2021/06/18 09:11:53;;;;;;;4.40;3.77;;;;;;;32.50;31.93;100764.92;1693958;82;25814;-72
2021/06/18 09:14:25;;;;;;;6.62;3.72;;;;;;;32.67;32.16;100757.20;1702901;81;26737;-73
2021/06/18 09:17:23;;;;;;;5.25;3.80;;;;;;;32.76;32.46;100750.93;1701441;83;27540;-69
2021/06/18 09:19:56;;;;;;;11.38;4.00;;;;;;;33.09;32.71;100733.16;1725131;81;26804;-76
2021/06/18 09:22:39;;;;;;;4.75;3.87;;;;;;;33.24;31.54;100760.08;1724222;80;25807;-69
2021/06/18 09:25:13;;;;;;;5.55;3.92;;;;;;;32.99;31.43;100752.52;1723273;81;26532;-71
2021/06/18 09:27:42;;;;;;;4.53;4.10;;;;;;;32.93;32.14;100750.13;1654697;82;25801;-68
2021/06/18 09:30:27;;;;;;;5.12;3.83;;;;;;;33.00;32.23;100753.30;1655266;82;27566;-70
2021/06/18 09:33:21;;;;;;;4.17;3.85;;;;;;;32.89;31.82;100762.86;1723654;81;25741;-70
2021/06/18 09:36:09;;;;;;;6.83;4.47;;;;;;;32.74;32.22;100752.78;1703821;81;26439;-70
2021/06/18 09:38:53;;;;;;;6.37;3.73;;;;;;;32.88;32.11;100745.91;1691301;81;25763;-69
2021/06/18 09:41:54;;;;;;;5.20;3.80;;;;;;;33.02;31.89;100736.84;1680172;83;26628;-70
2021/06/18 09:44:19;;;;;;;;;;;;;;;32.98;31.62;100750.17;1611415;87;27538;-70
2021/06/18 09:46:57;;;;;;;5.10;3.90;;;;;;;33.05;31.24;100755.52;1629341;86;26630;-70
2021/06/18 09:49:39;;;;;;;5.62;3.62;;;;;;;32.95;30.56;100750.48;1664229;84;26576;-71
2021/06/18 09:52:17;;;;;;;4.55;3.17;;;;;;;32.63;30.88;100755.77;1672797;83;27638;-72
2021/06/18 09:54:49;;;;;;;5.95;3.42;;;;;;;32.50;31.01;100754.35;1664660;84;26562;-70
2021/06/18 09:57:18;;;;;;;5.55;3.67;;;;;;;32.50;31.76;100743.92;1672979;83;26785;-69
2021/06/18 09:59:58;;;;;;;3.80;3.50;;;;;;;32.60;31.02;100742.02;1658662;84;25983;-70
2021/06/18 10:02:50;;;;;;;5.50;3.67;;;;;;;32.71;30.83;100745.87;1644746;84;25747;-69
2021/06/18 10:05:37;;;;;;;6.25;3.50;;;;;;;32.69;30.77;100737.95;1571411;89;26137;-71
2021/06/18 10:07:58;;;;;;;4.37;3.47;;;;;;;32.97;31.35;100737.42;1575498;89;25898;-70
2021/06/18 10:10:29;;;;;;;4.90;3.67;;;;;;;33.19;30.58;100746.66;1570243;88;27480;-72
2021/06/18 10:12:59;;;;;;;7.33;3.50;;;;;;;33.24;30.54;100732.05;1551509;90;26192;-75
2021/06/18 10:15:29;;;;;;;3.67;3.30;;;;;;;33.35;29.56;100724.64;1568342;88;25969;-71
2021/06/18 10:17:59;;;;;;;6.25;3.50;;;;;;;33.35;29.75;100719.67;1579601;88;25864;-71
2021/06/18 10:20:30;;;;;;;5.35;4.03;;;;;;;33.52;29.48;100725.22;1579241;88;25930;-70
2021/06/18 10:23:13;;;;;;;4.25;2.95;;;;;;;33.68;29.40;100713.05;1587114;87;27357;-72
2021/06/18 10:25:50;;;;;;;6.90;3.08;;;;;;;33.76;29.69;100712.14;1582866;88;26128;-73
2021/06/18 10:28:33;;;;;;;5.45;3.10;;;;;;;33.97;29.54;100707.70;1583644;88;25922;-73
2021/06/18 10:31:06;;;;;;;6.92;3.10;;;;;;;34.33;29.32;100729.53;1599419;87;26412;-73
2021/06/18 10:33:36;;;;;;;7.05;3.72;;;;;;;34.37;28.41;100710.50;1585638;86;25823;-85
2021/06/18 10:36:24;;;;;;;5.12;3.40;;;;;;;34.47;29.04;100714.12;1616126;82;27323;-75
2021/06/18 10:39:13;;;;;;;4.30;3.20;;;;;;;34.67;28.71;100704.45;1670252;83;25939;-75
2021/06/18 10:41:57;;;;;;;5.08;3.62;;;;;;;34.85;27.93;100707.30;1693085;81;25931;-75
2021/06/18 10:44:42;;;;;;;3.90;2.90;;;;;;;34.83;27.94;100736.50;1683011;82;25857;-74
2021/06/18 10:47:34;;;;;;;4.20;3.35;;;;;;;34.59;27.50;100704.00;1690858;82;25822;-76
2021/06/18 10:50:02;;;;;;;4.78;3.33;;;;;;;34.61;27.61;100701.50;1673651;81;27349;-76
2021/06/18 10:52:38;;;;;;;6.35;3.80;;;;;;;34.59;27.25;100703.36;1685575;82;27121;-78
2021/06/18 10:55:06;;;;;;;4.60;3.05;;;;;;;34.64;27.53;100697.76;1690856;82;25734;-78
2021/06/18 10:57:36;;;;;;;4.10;2.92;;;;;;;34.91;27.56;100696.24;1661304;83;26692;-80
2021/06/18 11:00:23;;;;;;;6.25;3.27;;;;;;;35.06;27.08;100697.77;1689971;81;26594;-77
2021/06/18 11:02:49;;;;;;;4.22;3.27;;;;;;;35.06;26.94;100690.75;1682668;83;27335;-78
2021/06/18 11:05:25;;;;;;;4.25;3.37;;;;;;;35.06;26.31;100685.92;1685840;82;25751;-76
2021/06/18 11:08:19;;;;;;;3.83;3.47;;;;;;;34.98;26.85;100688.27;1708564;81;25879;-74
2021/06/18 11:10:46;;;;;;;4.22;3.17;;;;;;;35.04;26.32;100677.16;1708181;81;26645;-79
2021/06/18 11:13:17;;;;;;;4.90;3.77;;;;;;;34.98;26.37;100681.23;1703572;81;26778;-78
2021/06/18 11:15:44;;;;;;;3.67;3.37;;;;;;;35.07;26.72;100691.69;1693161;82;27517;-78
2021/06/18 11:18:32;;;;;;;6.55;3.90;;;;;;;35.01;26.47;100685.16;1679437;81;26061;-73
2021/06/18 11:21:01;;;;;;;5.12;3.47;;;;;;;35.09;26.47;100686.40;1699832;81;25844;-72
2021/06/18 11:23:33;;;;;;;4.33;3.92;;;;;;;34.95;25.79;100686.39;1687026;82;26639;-75
2021/06/18 11:26:13;;;;;;;4.62;3.35;;;;;;;34.85;26.00;100688.27;1715569;81;25754;-77
2021/06/18 11:28:43;;;;;;;4.65;4.22;;;;;;;34.75;26.74;100695.31;1705551;81;27366;-76
2021/06/18 11:31:24;;;;;;;4.85;3.67;;;;;;;34.89;26.94;100680.45;1648468;84;25827;-73
2021/06/18 11:33:57;;;;;;;5.12;3.72;;;;;;;35.04;26.60;100675.76;1661643;83;27138;-78
2021/06/18 11:36:35;;;;;;;6.35;4.37;;;;;;;35.20;26.63;100670.44;1668717;83;25811;-78
2021/06/18 11:39:11;;;;;;;;;;;;;;;35.31;26.54;100669.34;1681050;83;25819;-83
2021/06/18 11:41:42;;;;;;;9.00;3.60;;;;;;;35.37;26.25;100672.91;1668858;83;27567;-68
2021/06/18 11:44:11;;;;;;;4.10;3.70;;;;;;;35.42;26.72;100670.27;1662394;82;25882;-69
2021/06/18 11:46:38;;;;;;;6.97;3.77;;;;;;;35.53;25.99;100669.11;1674676;83;25988;-69
2021/06/18 11:49:26;;;;;;;5.35;3.83;;;;;;;35.58;26.27;100673.33;1682957;83;27280;-69
2021/06/18 11:52:03;;;;;;;5.65;3.92;;;;;;;35.67;26.67;100674.72;1668301;83;25836;-70
2021/06/18 11:54:33;;;;;;;5.17;4.22;;;;;;;35.70;26.10;100673.73;1676986;83;27072;-70
2021/06/18 11:57:07;;;;;;;4.72;4.05;;;;;;;35.58;25.98;100664.11;1669211;84;25746;-71
2021/06/18 11:59:34;;;;;;;5.40;4.40;;;;;;;35.48;26.26;100659.14;1693382;83;25828;-69
2021/06/18 12:02:14;;;;;;;5.00;4.12;;;;;;;35.54;26.49;100660.84;1709541;81;26355;-67
2021/06/18 12:04:41;;;;;;;7.95;4.08;;;;;;;35.59;26.14;100658.63;1702026;81;26319;-69
2021/06/18 12:07:08;;;;;;;4.47;4.08;;;;;;;35.50;26.60;100655.22;1707047;81;27969;-68
2021/06/18 12:09:43;;;;;;;6.92;4.33;;;;;;;35.62;26.98;100654.87;1707216;81;26443;-69
2021/06/18 12:12:10;;;;;;;6.35;4.20;;;;;;;35.80;26.64;100652.01;1683260;81;25934;-69
2021/06/18 12:14:41;;;;;;;7.50;4.22;;;;;;;35.84;26.00;100647.00;1698235;81;25836;-69
2021/06/18 12:17:09;;;;;;;10.70;5.53;;;;;;;35.74;26.50;100650.31;1699602;81;25782;-77
2021/06/18 12:19:48;;;;;;;5.78;4.37;;;;;;;35.90;26.83;100674.63;1699289;81;27323;-71
2021/06/18 12:22:19;;;;;;;9.00;5.75;;;;;;;35.90;26.83;100674.63;1699033;82;26250;-68
2021/06/18 12:24:54;;;;;;;5.12;4.62;;;;;;;35.68;27.35;100648.76;1692707;81;25821;-74
2021/06/18 12:27:25;;;;;;;5.85;4.65;;;;;;;35.64;27.11;100653.16;1708318;81;25894;-69
2021/06/18 12:29:55;;;;;;;10.85;4.45;;;;;;;35.49;27.16;100641.03;1693103;81;25916;-71
2021/06/18 12:32:26;;;;;;;6.53;4.00;;;;;;;35.30;27.34;100647.34;1711497;81;28370;-68
2021/06/18 12:35:05;;;;;;;8.40;4.12;;;;;;;35.07;27.79;100650.16;1703321;81;25912;-70
2021/06/18 12:37:35;;;;;;;7.53;4.47;;;;;;;34.94;27.79;100648.92;1705399;82;25868;-71
2021/06/18 12:40:14;;;;;;;3.83;3.50;;;;;;;34.84;28.79;100639.74;1713138;81;25753;-73
2021/06/18 12:42:48;;;;;;;4.28;3.95;;;;;;;34.76;28.94;100642.70;1694897;83;25837;-71
2021/06/18 12:45:30;;;;;;;6.22;4.58;;;;;;;34.71;28.97;100640.50;1701961;81;27396;-72
2021/06/18 12:48:23;;;;;;;5.90;3.90;;;;;;;34.66;28.64;100627.08;1695831;81;25787;-73
2021/06/18 12:50:59;;;;;;;4.45;3.80;;;;;;;34.63;29.01;100630.19;1698737;81;25880;-64
2021/06/18 12:53:39;;;;;;;8.23;3.65;;;;;;;34.59;28.46;100625.36;1674830;83;25703;-63
2021/06/18 12:56:18;;;;;;;9.33;4.10;;;;;;;34.46;28.49;100635.33;1676663;84;25818;-64
2021/06/18 12:58:47;;;;;;;6.20;3.85;;;;;;;34.29;28.52;100632.67;1669219;83;27364;-63
2021/06/18 13:01:27;;;;;;;6.40;3.55;;;;;;;34.22;27.96;100637.36;1675647;84;25686;-62
2021/06/18 13:03:53;;;;;;;4.47;4.08;;;;;;;34.18;28.24;100634.50;1677649;84;25885;-62
2021/06/18 13:06:24;;;;;;;5.42;3.70;;;;;;;34.13;28.58;100629.51;1697803;82;25900;-62
2021/06/18 13:08:54;;;;;;;4.65;4.20;;;;;;;34.11;28.83;100641.20;1705835;81;26837;-62
2021/06/18 13:11:45;;;;;;;7.40;4.50;;;;;;;34.19;28.94;100628.43;1661953;84;26386;-62
2021/06/18 13:14:19;;;;;;;7.17;4.30;;;;;;;34.32;28.68;100631.11;1686540;82;25700;-62
2021/06/18 13:17:02;;;;;;;4.37;4.00;;;;;;;34.24;28.89;100628.45;1701255;81;25903;-62
2021/06/18 13:19:50;;;;;;;5.87;3.80;;;;;;;34.26;29.12;100626.58;1706669;81;25796;-64
2021/06/18 13:22:30;;;;;;;5.50;3.80;;;;;;;34.28;28.48;100623.48;1710472;81;25831;-64
2021/06/18 13:25:08;;;;;;;8.90;3.37;;;;;;;34.21;28.26;100617.55;1699029;81;27395;-63
2021/06/18 13:27:46;;;;;;;7.83;3.90;;;;;;;34.15;28.14;100617.19;1692400;81;25804;-62
2021/06/18 13:30:15;;;;;;;4.70;3.80;;;;;;;34.11;28.08;100617.97;1690440;81;25831;-63
2021/06/18 13:32:48;;;;;;;5.20;3.60;;;;;;;34.02;28.12;100621.52;1663998;81;26357;-63
2021/06/18 13:35:17;;;;;;;7.17;4.22;;;;;;;33.93;28.54;100616.66;1683167;81;25966;-63
2021/06/18 13:38:00;;;;;;;4.65;4.22;;;;;;;33.86;28.35;100608.55;1667794;83;26853;-64
2021/06/18 13:40:35;;;;;;;4.75;4.28;;;;;;;33.80;28.69;100615.40;1680416;83;26572;-62
2021/06/18 13:43:02;;;;;;;8.05;4.30;;;;;;;33.80;28.77;100601.38;1657981;84;25870;-65
2021/06/18 13:45:29;;;;;;;8.70;4.35;;;;;;;33.93;29.26;100606.84;1658568;84;26011;-64
2021/06/18 13:47:59;;;;;;;7.10;4.35;;;;;;;34.00;28.88;100606.58;1643783;84;25878;-64
2021/06/18 13:50:29;;;;;;;4.40;4.00;;;;;;;34.04;28.74;100592.39;1647132;85;27406;-62
2021/06/18 13:52:56;;;;;;;7.42;4.55;;;;;;;34.08;28.72;100600.03;1667701;83;25866;-63
2021/06/18 13:55:23;;;;;;;6.70;4.28;;;;;;;34.16;28.83;100599.89;1663821;83;25947;-63
2021/06/18 13:57:49;;;;;;;9.53;4.28;;;;;;;34.28;28.99;100601.66;1667265;83;25806;-63
2021/06/18 14:00:17;;;;;;;7.33;4.12;;;;;;;34.42;28.65;100610.85;1652113;83;25968;-63
2021/06/18 14:02:44;;;;;;;6.33;4.58;;;;;;;34.43;28.53;100601.97;1596517;86;27411;-63
2021/06/18 14:05:12;;;;;;;4.47;4.08;;;;;;;34.36;28.12;100603.69;1669030;84;26458;-64
2021/06/18 14:07:39;;;;;;;6.95;4.28;;;;;;;34.23;28.30;100599.61;1658773;84;26435;-64
2021/06/18 14:10:08;;;;;;;6.15;4.05;;;;;;;34.11;28.27;100596.92;1659318;84;25614;-64
2021/06/18 14:12:36;;;;;;;4.83;4.12;;;;;;;34.02;28.72;100592.86;1666137;84;26889;-62
2021/06/18 14:15:08;;;;;;;5.85;4.22;;;;;;;34.06;28.88;100589.89;1671186;84;27483;-63
2021/06/18 14:17:33;;;;;;;11.68;5.30;;;;;;;34.11;29.00;100587.88;1656927;84;25929;-63
2021/06/18 14:20:04;;;;;;;8.75;4.40;;;;;;;34.08;28.78;100582.42;1682345;82;26653;-62
2021/06/18 14:22:30;;;;;;;6.15;4.40;;;;;;;34.06;28.94;100580.08;1671232;84;25914;-62
2021/06/18 14:24:59;;;;;;;5.65;4.22;;;;;;;34.05;28.99;100578.50;1700404;82;26718;-63
2021/06/18 14:27:26;;;;;;;17.57;4.50;;;;;;;34.09;29.25;100586.16;1683593;81;28425;-63
2021/06/18 14:29:53;;;;;;;8.53;4.17;;;;;;;34.13;29.42;100581.17;1684510;82;27175;-63
2021/06/18 14:32:21;;;;;;;8.48;4.35;;;;;;;34.15;28.82;100577.90;1658747;83;25929;-70
2021/06/18 14:34:48;;;;;;;;;;;;;;;33.97;28.68;100584.25;1642976;84;26414;-72
2021/06/18 14:37:17;;;;;;;5.50;3.85;;;;;;;33.80;28.46;100571.92;1650208;84;26353;-73
2021/06/18 14:39:44;;;;;;;6.90;4.35;;;;;;;33.66;28.59;100569.05;1677576;83;27429;-72
2021/06/18 14:42:12;;;;;;;6.05;4.12;;;;;;;33.56;29.01;100577.88;1703725;82;26703;-65
2021/06/18 14:44:40;;;;;;;7.97;4.00;;;;;;;33.56;29.01;100577.88;1680855;83;26652;-63
2021/06/18 14:47:08;;;;;;;4.90;3.87;;;;;;;33.46;29.00;100576.45;1644992;84;26365;-65
2021/06/18 14:49:35;;;;;;;5.95;4.60;;;;;;;33.35;28.72;100569.71;1636047;84;26560;-70
2021/06/18 14:52:02;;;;;;;7.62;4.72;;;;;;;33.22;28.96;100569.20;1660946;84;27278;-77
2021/06/18 14:54:32;;;;;;;6.30;3.92;;;;;;;33.18;29.58;100572.74;1598191;84;26748;-64
2021/06/18 14:57:02;;;;;;;8.23;4.25;;;;;;;33.17;29.49;100568.99;1657241;84;26755;-64
2021/06/18 14:59:31;;;;;;;6.62;4.28;;;;;;;33.08;29.87;100572.50;1654088;83;26251;-64
2021/06/18 15:01:57;;;;;;;;;;;;;;;33.20;29.88;100592.67;1660364;84;25526;-65
2021/06/18 15:04:24;;;;;;;5.55;4.00;;;;;;;33.00;29.76;100573.41;1652853;84;27408;-66
2021/06/18 15:06:51;;;;;;;4.33;3.95;;;;;;;32.95;30.03;100581.77;1665294;84;25806;-67
2021/06/18 15:09:17;;;;;;;3.98;3.62;;;;;;;32.85;29.77;100578.75;1658476;84;25901;-65
2021/06/18 15:11:44;;;;;;;8.13;4.30;;;;;;;32.75;30.13;100577.91;1664675;82;25859;-65
2021/06/18 15:14:11;;;;;;;5.20;4.30;;;;;;;32.72;30.23;100577.41;1694792;81;26289;-64
2021/06/18 15:16:37;;;;;;;5.00;4.50;;;;;;;32.68;30.24;100570.40;1686335;82;27388;-64
2021/06/18 15:19:04;;;;;;;7.12;4.45;;;;;;;32.60;30.38;100574.03;1700120;81;26293;-65
2021/06/18 15:21:31;;;;;;;11.97;4.37;;;;;;;32.55;30.65;100572.59;1689371;81;25893;-65
2021/06/18 15:23:57;;;;;;;7.28;4.40;;;;;;;32.50;30.61;100567.57;1708285;81;25790;-65
2021/06/18 15:26:24;;;;;;;7.15;4.05;;;;;;;32.50;30.57;100585.77;1678575;83;26301;-66
2021/06/18 15:28:50;;;;;;;7.35;4.12;;;;;;;32.50;30.57;100585.77;1663861;83;27734;-66
2021/06/18 15:31:17;;;;;;;15.53;4.25;;;;;;;32.24;30.52;100564.73;1696267;83;26720;-62
2021/06/18 15:33:43;;;;;;;7.45;5.05;;;;;;;32.24;30.52;100564.73;1698538;81;25862;-62
2021/06/18 15:36:10;;;;;;;6.97;4.70;;;;;;;32.14;31.01;100560.43;1695400;81;25817;-63
2021/06/18 15:38:36;;;;;;;5.83;5.03;;;;;;;32.06;30.93;100558.33;1652043;84;25865;-62
2021/06/18 15:41:03;;;;;;;9.98;4.80;;;;;;;31.95;31.08;100566.44;1691947;82;27427;-65
2021/06/18 15:43:29;;;;;;;7.42;4.15;;;;;;;31.89;31.37;100561.27;1701115;81;25766;-65
2021/06/18 15:45:56;;;;;;;9.58;4.72;;;;;;;31.89;31.52;100566.86;1645772;84;25802;-63
2021/06/18 15:48:22;;;;;;;14.10;4.15;;;;;;;31.83;31.54;100558.86;1706587;81;26273;-63
2021/06/18 15:50:49;;;;;;;6.08;4.87;;;;;;;31.78;31.54;100556.01;1697737;81;25855;-64
2021/06/18 15:53:16;;;;;;;8.40;4.62;;;;;;;31.71;31.62;100564.63;1693312;82;29485;-64
2021/06/18 15:55:44;;;;;;;6.28;4.55;;;;;;;31.61;31.67;100562.97;1667389;83;25780;-62
2021/06/18 15:58:10;;;;;;;4.90;4.42;;;;;;;31.50;31.87;100559.69;1695778;82;26546;-63
2021/06/18 16:00:37;;;;;;;6.45;4.42;;;;;;;31.43;32.16;100563.48;1698215;81;25705;-62
2021/06/18 16:03:03;;;;;;;7.72;4.17;;;;;;;31.36;32.34;100556.73;1710846;81;25844;-63
2021/06/18 16:05:30;;;;;;;5.70;4.60;;;;;;;31.28;32.29;100559.75;1694603;81;27304;-63
2021/06/18 16:07:56;;;;;;;7.25;5.12;;;;;;;31.21;32.34;100555.78;1645315;84;26024;-63
2021/06/18 16:10:22;;;;;;;8.70;4.90;;;;;;;31.13;32.59;100550.24;1673659;82;25864;-63
2021/06/18 16:12:49;;;;;;;4.90;4.40;;;;;;;31.08;32.70;100554.36;1684219;81;26569;-65
2021/06/18 16:15:16;;;;;;;6.03;4.67;;;;;;;31.06;32.73;100558.84;1699389;81;25927;-64
2021/06/18 16:17:44;;;;;;;6.97;4.90;;;;;;;31.01;32.64;100564.98;1630756;85;27335;-64
2021/06/18 16:20:12;;;;;;;4.95;4.33;;;;;;;30.89;32.74;100553.92;1693685;82;25821;-65
2021/06/18 16:22:43;;;;;;;5.50;4.93;;;;;;;30.83;32.92;100564.05;1711349;81;25681;-64
2021/06/18 16:25:08;;;;;;;5.95;4.50;;;;;;;30.70;33.12;100555.03;1709945;81;27514;-67
2021/06/18 16:27:34;;;;;;;5.50;4.75;;;;;;;30.66;33.33;100558.52;1696939;81;25967;-67
2021/06/18 16:30:02;;;;;;;6.47;4.72;;;;;;;30.60;33.31;100556.71;1706063;81;27413;-66
2021/06/18 16:32:29;;;;;;;6.63;4.60;;;;;;;30.51;33.55;100554.56;1670920;84;26628;-66
2021/06/18 16:34:56;;;;;;;8.70;5.80;;;;;;;30.42;33.60;100553.03;1696150;82;25923;-65
2021/06/18 16:37:22;;;;;;;6.17;4.45;;;;;;;30.36;33.68;100545.81;1633126;84;25835;-64
2021/06/18 16:39:49;;;;;;;11.90;5.25;;;;;;;30.29;33.74;100543.97;1697872;81;25883;-64
2021/06/18 16:42:16;;;;;;;9.90;4.83;;;;;;;30.28;33.96;100548.59;1703422;81;26395;-63
2021/06/18 16:44:42;;;;;;;12.58;5.33;;;;;;;30.24;34.02;100552.88;1690030;81;25830;-66
2021/06/18 16:47:09;;;;;;;11.80;4.85;;;;;;;30.16;34.09;100551.48;1711466;81;25673;-67
2021/06/18 16:49:35;;;;;;;5.30;4.80;;;;;;;30.11;34.20;100552.02;1686733;82;26213;-67
2021/06/18 16:52:02;;;;;;;5.75;4.70;;;;;;;30.04;34.33;100548.80;1660962;84;26313;-68
2021/06/18 16:54:33;;;;;;;5.78;5.25;;;;;;;29.95;34.38;100548.62;1664941;83;27359;-67
2021/06/18 16:56:58;;;;;;;5.40;4.60;;;;;;;29.87;34.45;100550.04;1687210;83;25929;-70
2021/06/18 16:59:24;;;;;;;6.72;5.08;;;;;;;29.81;34.63;100558.12;1668769;83;25648;-69
2021/06/18 17:01:55;;;;;;;6.72;4.78;;;;;;;29.78;34.89;100560.38;1662235;83;26502;-69
2021/06/18 17:04:19;;;;;;;5.70;5.20;;;;;;;29.74;35.02;100560.44;1690952;81;25755;-70
2021/06/18 17:06:51;;;;;;;10.35;5.30;;;;;;;29.70;35.09;100559.75;1692552;81;26828;-71
2021/06/18 17:09:15;;;;;;;8.15;5.15;;;;;;;29.65;35.14;100564.45;1695888;81;25856;-70
2021/06/18 17:11:44;;;;;;;7.10;5.40;;;;;;;29.59;35.21;100560.60;1714346;81;26371;-68